METAR Data
IDs: Format: Raw Decoded Include TAF

Data at: 0103 UTC 06 Dec 2019

KSLC 060054Z 36006KT 2SM BR OVC011 02/01 A3024 RMK AO2 SLP250 T00170011
KSLC 060027Z 36004KT 2SM BR OVC010 02/02 A3024 RMK AO2 T00220017
KSLC 052354Z 01005KT 2SM BR OVC007 02/01 A3023 RMK AO2 SLP245 4/001 60002 T00220011 10033 20017 51013
KSLC 052254Z 00000KT 2SM BR OVC009 03/01 A3021 RMK AO2 SFC VIS 3 SLP238 T00280011
KSLC 052251Z 00000KT 2SM BR OVC009 03/01 A3021 RMK AO2 SFC VIS 3
KSLC 052154Z 00000KT 2SM BR OVC010 03/01 A3019 RMK AO2 SFC VIS 3 SLP231 T00280011
KSLC 052134Z 00000KT 2SM BR OVC010 03/02 A3019 RMK AO2 SFC VIS 3 T00280017
KSLC 052054Z 00000KT 2SM BR OVC006 03/02 A3017 RMK AO2 SFC VIS 3 RAE06 SLP225 P0000 60002 T00280017 51009
KSLC 051954Z 30003KT 2SM R16L/5500VP6000FT -RA BR OVC006 02/01 A3016 RMK AO2 RAE15B50 SLP221 P0001 T00220011
KSLC 051854Z 00000KT 2SM -RA BR OVC005 02/01 A3016 RMK AO2 RAE1756B37 SLP222 P0001 T00170011
KSLC 051841Z 26003KT 2SM -RA BR OVC005 02/01 A3016 RMK AO2 RAE1756B37 P0000 T00170011
KSLC 051823Z 00000KT 1SM R16L/P6000FT BR BKN005 OVC023 02/01 A3015 RMK AO2 SFC VIS 2 RAE1756 P0000 T00170011
KSLC 051808Z 00000KT 1SM R16L/P6000FT BR SCT006 OVC023 02/01 A3014 RMK AO2 SFC VIS 2 RAE1756 P0000 T00170011
KSLC 051754Z 00000KT 1SM R16L/3500VP6000FT -RA BR BKN006 OVC023 02/01 A3014 RMK AO2 SFC VIS 2 SLP216 4/001 P0000 60009 I1000 I6000 T00170011 10017 20006 53018
KSLC 051654Z 00000KT 1SM R16L/6000VP6000FT -RA BR OVC007 02/01 A3012 RMK AO2 SFC VIS 1 3/4 RAB16SNE16 SLP208 P0001 I1000 T00170011
KSLC 051554Z 35004KT 1/2SM R16L/4000V4500FT -SN BR OVC006 01/01 A3009 RMK AO2 SFC VIS 1 SLP199 RAB02E05 P0002 T00060006
KSLC 051549Z 34004KT 1/2SM R16L/4000V4500FT -SN BR OVC005 01/00 A3008 RMK AO2 SFC VIS 1 RAB02E05 P0002
KSLC 051454Z 01004KT 1/2SM R16L/5000VP6000FT -SN BR BCFG OVC004 01/01 A3004 RMK AO2 SFC VIS 1 1/2 RAE52SNB52 SLP184 P0003 60006 T00110006 53029
KSLC 051443Z 36003KT 1/2SM R16L/P6000FT -RA BR BCFG OVC004 01/01 A3003 RMK AO2 SFC VIS 1 1/2 P0003 T00110006
KSLC 051401Z 00000KT 1SM R16L/P6000FT -RA BR OVC004 01/01 A3001 RMK AO2 SFC VIS 1 3/4 P0001 T00110006
KSLC 051354Z 00000KT 1SM R16L/P6000FT -RA BR BCFG BKN005 OVC017 01/01 A3001 RMK AO2 SFC VIS 1 3/4 SLP172 P0003 T00110011
KSLC 051254Z 28004KT 1SM R16L/P6000FT -RA BR BCFG SCT004 BKN008 OVC017 01/01 A2997 RMK AO2 SFC VIS 1 1/2 RAB19 SLP159 P0000 T00110006
KSLC 051235Z 26005KT 1SM R16L/P6000FT -RA BR BCFG FEW009 OVC011 01/01 A2996 RMK AO2 SFC VIS 2 RAB19 P0000 T00110006
KSLC 051154Z 31004KT 1SM R16L/P6000FT BR BCFG BKN009 OVC011 01/00 A2995 RMK AO2 SFC VIS 1 1/2 SLP151 4/001 60008 70015 I6000 T00060000 10011 20006 53007
KSLC 051054Z 32006KT 1SM R16L/P6000FT BR BCFG BKN009 OVC011 01/00 A2994 RMK AO2 SFC VIS 2 SLP147 T00060000
KSLC 051024Z 32006KT 1SM R16L/P6000FT BR BCFG BKN006 OVC011 01/00 A2993 RMK AO2 SFC VIS 1 1/2 T00060000
KSLC 050954Z 34006KT 1SM R16L/P6000FT BR BCFG FEW003 OVC012 01/00 A2992 RMK AO2 SFC VIS 1 1/2 RAB34E54 SLP142 P0000 T00060000
KSLC 050854Z COR 35005KT 1SM R16L/P6000FT BR BCFG BKN004 OVC015 01/00 A2990 RMK AO2 RAE16 SLP133 P0001 60008 I3000 T00060000 55001
KSLC 050843Z 36004KT 1SM R16L/P6000FT BR BCFG BKN003 OVC015 01/M01 A2989 RMK AO2 RAE16 P0001 T00061006
KSLC 050829Z 00000KT 1SM R16L/5500VP6000FT BR BCFG SCT004 BKN014 OVC027 01/00 A2989 RMK AO2 RAE16 P0001 T00060000
KSLC 050754Z 00000KT 1SM R16L/5500VP6000FT -RA BR BCFG FEW004 OVC014 01/00 A2989 RMK AO2 SFC VIS 1 1/4 RAB27FZRAE27 SLP128 P0003 I1000 T00110000
KSLC 050747Z 00000KT 1SM R16L/5500VP6000FT -RA BR BCFG FEW004 OVC014 01/01 A2989 RMK AO2 SFC VIS 1 1/2 RAB27FZRAE27 P0003 I1000 T00110006
KSLC 050733Z 00000KT 1SM R16L/6000VP6000FT -RA BR BCFG BKN004 OVC017 01/00 A2989 RMK AO2 SFC VIS 1 1/2 RAB27FZRAE27 P0002 I1000 T00110000
KSLC 050719Z 00000KT 1 1/2SM R16L/6000VP6000FT -FZRA BR BKN004 OVC021 01/00 A2989 RMK AO2 TWR VIS 2 P0002 I1000 T00060000
KSLC 050711Z 00000KT 1 1/2SM R16L/6000VP6000FT -FZRA BR SCT005 BKN021 OVC030 01/00 A2989 RMK AO2 TWR VIS 2 P0001 I1000 T00060000
KSLC 050654Z 00000KT 1 1/2SM -FZRA BR BKN021 OVC030 01/00 A2989 RMK AO2 TWR VIS 2 SLP133 P0004 I1000 T00060000 400061044
KSLC 050554Z 00000KT 1 3/4SM -FZRA BR OVC025 01/M01 A2990 RMK AO2 TWR VIS 2 FZRAB03 SLP138 4/001 P0007 60007 I1005 I6005 T00061006 10006 21011 56001
KSLC 050532Z 17003KT 1 3/4SM FZRA BR OVC029 01/M01 A2991 RMK AO2 TWR VIS 2 FZRAB03 P0003 I1003 T00061006
KSLC 050523Z 00000KT 1 3/4SM -FZRA BR OVC033 00/M01 A2990 RMK AO2 TWR VIS 2 FZRAB03 P0003 I1002 T00001006
KSLC 050514Z 14003KT 2SM FZRA BR OVC035 00/M01 A2991 RMK AO2 FZRAB03 P0001 I1001 T00001006
KSLC 050504Z COR 16004KT 2SM -FZRA BR FEW007 OVC036 00/M01 A2991 RMK AO2 FZRAB03 P0000 I1001 T00001006
KSLC 050502Z 15003KT 1SM R16L/P6000FT BR BCFG SCT007 OVC036 00/M01 A2991 RMK AO2 SFC VIS 2 I1000 T00001006
KSLC 050454Z 00000KT 1SM R16L/P6000FT BR BCFG BKN006 OVC036 00/M01 A2991 RMK AO2 SFC VIS 2 1/2 SLP140 T00001011
KSLC 050444Z 14004KT 1SM R16L/P6000FT BR BCFG OVC005 00/M01 A2991 RMK AO2 SFC VIS 2 1/2 T00001011
KSLC 050354Z COR 19003KT 1SM R16L/P6000FT BR BCFG OVC003 M01/M01 A2990 RMK AO2 SFC VIS 1 1/2 SLP140 T10061011
KSLC 050254Z COR 00000KT 1/2SM R16L/2000V3500FT FZFG OVC003 M01/M02 A2991 RMK AO2 SFC VIS 1 1/4 SLP145 T10111022 58013
KSLC 050217Z 03003KT 1/2SM R16L/2200V6000FT FZFG VV002 M01/M01 A2992 RMK AO2 TWR VIS 3/4 T10111011
KSLC 050154Z 35005KT 1/8SM R16L/1200V2200FT FZFG VV002 M01/M02 A2993 RMK AO2 SFC VIS 1/2 SLP150 I1000 T10111017
KSLC 050135Z 36005KT 1/8SM R16L/1400V2800FT FZFG VV002 M01/M01 A2993 RMK AO2 SFC VIS 1/4 I1000 T10111011
KSLC 050054Z 31005KT 1/8SM R16L/1200V2000FT FZFG VV002 M01/M01 A2995 RMK AO2 SFC VIS 1/2 SLP157 T10111011
KSLC 042354Z 32004KT 1/8SM R16L/0800V1400FT FZFG OVC002 M01/M01 A2995 RMK AO2 SFC VIS 3/4 VIS M1/4 NW RNWY SLP152 4/001 I6001 T10061011 10000 21017 56016
KSLC 042303Z VRB03KT 1/8SM R16L/1200V1600FT FZFG OVC003 M01/M01 A2996 RMK AO2 SFC VIS 3/4 T10061011
KSLC 042254Z 28003KT 1/8SM R16L/1200V2400FT FZFG OVC003 M01/M01 A2996 RMK AO2 SFC VIS 3/4 SLP159 T10061011
KSLC 042216Z 29005KT 1/8SM R16L/1000V1600FT BR OVC003 00/M01 A2997 RMK AO2 SFC VIS 3/4 T00001011
KSLC 042154Z 36004KT 1/8SM R16L/1600V2800FT FZFG OVC003 M01/M01 A2998 RMK AO2 SFC VIS 1/2 SLP161 T10061011
KSLC 042133Z 36005KT 1/8SM R16L/1800V3000FT FG OVC004 00/M01 A2998 RMK AO2 SFC VIS 1/2 T00001011
KSLC 042054Z 35003KT 1/8SM R16L/1000V1400FT FG OVC003 00/M01 A3000 RMK AO2 SFC VIS 1/4 SLP171 I3001 T00001011 56018
KSLC 042052Z 00000KT 1/8SM R16L/1000V1600FT FG OVC003 00/M01 A3000 RMK AO2 SFC VIS 1/4
KSLC 042042Z 00000KT 1/8SM R16L/1200V2600FT FG OVC003 00/M01 A3001 RMK AO2 SFC VIS 1/2 T00001011
KSLC 042033Z 27003KT 1/8SM R16L/1000V2200FT FG OVC004 00/M01 A3001 RMK AO2 SFC VIS 1/2 T00001006
KSLC 042014Z 33004KT 1/8SM R16L/1800V3500FT FZFG OVC004 M01/M01 A3001 RMK AO2 SFC VIS 1/2 T10061011
KSLC 041954Z 30005KT 1/8SM R16L/1000V1200FT BR OVC003 00/M01 A3003 RMK AO2 SFC VIS 3/4 VIS 1/4 NW RNWY SLP181 T00001006
KSLC 041854Z 31005KT 1/8SM R16L/0800V1000FT FZFG OVC004 M01/M01 A3006 RMK AO2 SFC VIS 1/2 SLP195 I1001 T10111011
KSLC 041811Z 36004KT 1/8SM R16L/0400V0500FT FZFG VV002 M02/M02 A3008 RMK AO2 TWR VIS 1/4 I1000 T10171022
KSLC 041754Z 02005KT 1/8SM R16L/0400V0500FT FZFG VV001 M02/M02 A3009 RMK AO2 TWR VIS 1/4 SLP204 4/002 I1001 I6002 T10171022 10000 21044 55005
KSLC 041740Z 01005KT 1/8SM R16L/0400V0500FT FZFG VV001 M02/M02 A3009 RMK AO2 TWR VIS 1/4 I1000 T10171022
KSLC 041701Z 34003KT 1/4SM R16L/0400FT FZFG VV002 M02/M03 A3008 RMK AO2 TWR VIS 3/4 T10221028
KSLC 041654Z 34003KT 1/2SM R16L/0400V0600FT FZFG VV003 M03/M03 A3008 RMK AO2 TWR VIS 3/4 SLP202 T10281033
KSLC 041645Z 35004KT 1/2SM R16L/0600FT FZFG VV003 M03/M03 A3008 RMK AO2 TWR VIS 3/4 T10281033
KSLC 041633Z 36006KT 3/4SM R16L/0600V0800FT BR VV007 M03/M04 A3009 RMK AO2 T10331044
KSLC 041625Z 01004KT 3/4SM R16L/0800V1000FT BR VV011 M02/M04 A3009 RMK AO2 T10221039
KSLC 041601Z 36003KT 1/2SM R16L/0600V1600FT FZFG SCT010 BKN080 BKN200 M03/M04 A3010 RMK AO2 TWR VIS 3/4 T10281039
KSLC 041554Z 35003KT 1/4SM R16L/0500V0700FT FZFG VV010 M03/M03 A3011 RMK AO2 TWR VIS 3/4 SLP213 T10281033
KSLC 041521Z 35003KT 1/4SM R16L/0700V1000FT FZFG VV010 M04/M05 A3011 RMK AO2 TWR VIS 3/4 T10391050
KSLC 041506Z 00000KT 1/4SM R16L/0500V0600FT FZFG SCT000 BKN080 BKN200 M03/M04 A3011 RMK AO2 TWR VIS 3/4 FG SCT000 T10331044
KSLC 041454Z 00000KT 1/2SM R16L/0700V4500FT FZFG SCT001 BKN080 BKN200 M03/M05 A3010 RMK AO2 TWR VIS 3/4 SLP211 I3001 T10331050 55008
KSLC 041443Z 00000KT 1/4SM R16L/1000V2400FT FZFG SCT003 SCT080 M03/M04 A3010 RMK AO2 TWR VIS 3/4 T10331044
KSLC 041431Z 00000KT 1/4SM R16L/1200V1400FT FZFG SCT002 M03/M04 A3010 RMK AO2 TWR VIS 3/4 T10331044
KSLC 041358Z COR 28003KT 1/2SM R16L/1000V1400FT FZFG SCT002 M02/M03 A3010 RMK AO2 TWR VIS GTR THAN FOUR T10171028
KSLC 041354Z 00000KT 1/4SM R16L/1000V1400FT FZFG BKN007 M02/M03 A3010 RMK AO2 SLP207 TWR VIS GTR THAN FOUR I1001 T10171028
KSLC 041350Z 00000KT 1/4SM R16L/0800V1400FT FZFG BKN007 M02/M03 A3010 RMK AO2 TWR VIS GTR THAN FOUR I1001
KSLC 041336Z 00000KT 2SM R16L/0800V1200FT BR BCFG SCT007 M02/M03 A3010 RMK AO2 VIS 1/4 NW RNWY TWR VIS GTR THAN FOUR I1000 T10221033 $
KSLC 041325Z 00000KT 3/4SM R16L/0600V2000FT BR BCFG VV007 M02/M03 A3010 RMK AO2 TWR VIS GTR THAN FOUR I1000 T10221033 $